sensor_id;sensor_type;location;lat;lon;timestamp;P1;durP1;ratioP1;P2;durP2;ratioP2
57337;SDS011;43173;50.980;18.204;2023-08-31T00:02:10;9.30;;;6.20;;
57337;SDS011;43173;50.980;18.204;2023-08-31T00:04:36;11.90;;;6.50;;
57337;SDS011;43173;50.980;18.204;2023-08-31T00:07:01;7.60;;;5.90;;
57337;SDS011;43173;50.980;18.204;2023-08-31T00:09:27;12.60;;;6.60;;
57337;SDS011;43173;50.980;18.204;2023-08-31T00:11:54;9.10;;;5.90;;
57337;SDS011;43173;50.980;18.204;2023-08-31T00:14:22;7.60;;;6.30;;
57337;SDS011;43173;50.980;18.204;2023-08-31T00:16:48;9.30;;;6.50;;
57337;SDS011;43173;50.980;18.204;2023-08-31T00:19:15;9.30;;;6.70;;
57337;SDS011;43173;50.980;18.204;2023-08-31T00:21:41;7.90;;;6.30;;
57337;SDS011;43173;50.980;18.204;2023-08-31T00:24:07;10.00;;;6.10;;
57337;SDS011;43173;50.980;18.204;2023-08-31T00:26:35;10.90;;;6.50;;
57337;SDS011;43173;50.980;18.204;2023-08-31T00:29:04;8.60;;;7.00;;
57337;SDS011;43173;50.980;18.204;2023-08-31T00:31:30;10.10;;;6.80;;
57337;SDS011;43173;50.980;18.204;2023-08-31T00:33:56;8.60;;;6.70;;
57337;SDS011;43173;50.980;18.204;2023-08-31T00:36:21;8.40;;;7.10;;
57337;SDS011;43173;50.980;18.204;2023-08-31T00:38:48;8.60;;;6.90;;
57337;SDS011;43173;50.980;18.204;2023-08-31T00:41:14;12.50;;;7.20;;
57337;SDS011;43173;50.980;18.204;2023-08-31T00:43:40;9.20;;;6.70;;
57337;SDS011;43173;50.980;18.204;2023-08-31T00:46:06;11.20;;;8.00;;
57337;SDS011;43173;50.980;18.204;2023-08-31T00:48:32;9.30;;;7.10;;
57337;SDS011;43173;50.980;18.204;2023-08-31T00:50:58;12.70;;;8.10;;
57337;SDS011;43173;50.980;18.204;2023-08-31T00:53:26;10.20;;;7.80;;
57337;SDS011;43173;50.980;18.204;2023-08-31T00:55:51;14.00;;;7.60;;
57337;SDS011;43173;50.980;18.204;2023-08-31T00:58:17;11.10;;;8.40;;
57337;SDS011;43173;50.980;18.204;2023-08-31T01:00:50;11.80;;;8.50;;
57337;SDS011;43173;50.980;18.204;2023-08-31T01:03:31;11.30;;;8.20;;
57337;SDS011;43173;50.980;18.204;2023-08-31T01:06:06;10.00;;;7.60;;
57337;SDS011;43173;50.980;18.204;2023-08-31T01:14:02;9.70;;;8.20;;
57337;SDS011;43173;50.980;18.204;2023-08-31T01:16:34;11.60;;;8.70;;
57337;SDS011;43173;50.980;18.204;2023-08-31T01:19:03;11.30;;;8.30;;
57337;SDS011;43173;50.980;18.204;2023-08-31T01:21:39;11.60;;;9.10;;
57337;SDS011;43173;50.980;18.204;2023-08-31T01:24:05;13.30;;;9.10;;
57337;SDS011;43173;50.980;18.204;2023-08-31T01:26:32;11.30;;;8.80;;
57337;SDS011;43173;50.980;18.204;2023-08-31T01:28:57;13.00;;;8.90;;
57337;SDS011;43173;50.980;18.204;2023-08-31T01:31:23;12.50;;;9.10;;
57337;SDS011;43173;50.980;18.204;2023-08-31T01:33:49;12.60;;;8.90;;
57337;SDS011;43173;50.980;18.204;2023-08-31T01:39:11;11.30;;;8.70;;
57337;SDS011;43173;50.980;18.204;2023-08-31T01:41:40;13.90;;;8.70;;
57337;SDS011;43173;50.980;18.204;2023-08-31T01:44:10;11.90;;;9.20;;
57337;SDS011;43173;50.980;18.204;2023-08-31T01:46:39;14.90;;;8.50;;
57337;SDS011;43173;50.980;18.204;2023-08-31T01:49:06;14.00;;;9.30;;
57337;SDS011;43173;50.980;18.204;2023-08-31T01:51:32;13.10;;;9.30;;
57337;SDS011;43173;50.980;18.204;2023-08-31T01:53:58;12.70;;;8.90;;
57337;SDS011;43173;50.980;18.204;2023-08-31T01:56:24;13.10;;;8.80;;
57337;SDS011;43173;50.980;18.204;2023-08-31T01:58:50;13.40;;;8.60;;
57337;SDS011;43173;50.980;18.204;2023-08-31T02:01:15;14.20;;;9.40;;
57337;SDS011;43173;50.980;18.204;2023-08-31T02:03:41;15.80;;;9.00;;
57337;SDS011;43173;50.980;18.204;2023-08-31T02:06:07;13.50;;;9.10;;
57337;SDS011;43173;50.980;18.204;2023-08-31T02:08:32;13.00;;;9.00;;
57337;SDS011;43173;50.980;18.204;2023-08-31T02:10:58;11.50;;;8.90;;
57337;SDS011;43173;50.980;18.204;2023-08-31T02:13:24;13.70;;;9.50;;
57337;SDS011;43173;50.980;18.204;2023-08-31T02:15:53;13.70;;;9.10;;
57337;SDS011;43173;50.980;18.204;2023-08-31T02:18:19;11.50;;;9.20;;
57337;SDS011;43173;50.980;18.204;2023-08-31T02:20:45;12.90;;;8.60;;
57337;SDS011;43173;50.980;18.204;2023-08-31T02:23:10;14.20;;;8.60;;
57337;SDS011;43173;50.980;18.204;2023-08-31T02:25:37;13.50;;;9.30;;
57337;SDS011;43173;50.980;18.204;2023-08-31T02:30:32;13.30;;;8.80;;
57337;SDS011;43173;50.980;18.204;2023-08-31T02:32:58;13.00;;;8.90;;
57337;SDS011;43173;50.980;18.204;2023-08-31T02:35:23;13.10;;;8.30;;
57337;SDS011;43173;50.980;18.204;2023-08-31T02:37:49;10.20;;;8.00;;
57337;SDS011;43173;50.980;18.204;2023-08-31T02:40:14;12.60;;;8.60;;
57337;SDS011;43173;50.980;18.204;2023-08-31T02:42:41;14.70;;;8.80;;
57337;SDS011;43173;50.980;18.204;2023-08-31T02:45:07;17.20;;;8.30;;
57337;SDS011;43173;50.980;18.204;2023-08-31T02:47:33;10.00;;;7.80;;
57337;SDS011;43173;50.980;18.204;2023-08-31T02:49:59;14.30;;;8.50;;
57337;SDS011;43173;50.980;18.204;2023-08-31T02:52:25;13.00;;;8.00;;
57337;SDS011;43173;50.980;18.204;2023-08-31T02:54:51;11.30;;;8.00;;
57337;SDS011;43173;50.980;18.204;2023-08-31T02:57:16;15.10;;;8.40;;
57337;SDS011;43173;50.980;18.204;2023-08-31T02:59:44;12.20;;;8.00;;
57337;SDS011;43173;50.980;18.204;2023-08-31T03:02:11;13.10;;;8.70;;
57337;SDS011;43173;50.980;18.204;2023-08-31T03:04:37;12.30;;;8.50;;
57337;SDS011;43173;50.980;18.204;2023-08-31T03:07:03;11.70;;;8.00;;
57337;SDS011;43173;50.980;18.204;2023-08-31T03:09:29;12.10;;;8.10;;
57337;SDS011;43173;50.980;18.204;2023-08-31T03:11:55;13.00;;;8.30;;
57337;SDS011;43173;50.980;18.204;2023-08-31T03:14:20;10.40;;;8.00;;
57337;SDS011;43173;50.980;18.204;2023-08-31T03:16:47;12.40;;;8.80;;
57337;SDS011;43173;50.980;18.204;2023-08-31T03:19:14;13.40;;;8.30;;
57337;SDS011;43173;50.980;18.204;2023-08-31T03:21:39;13.40;;;8.80;;
57337;SDS011;43173;50.980;18.204;2023-08-31T03:24:05;12.90;;;8.30;;
57337;SDS011;43173;50.980;18.204;2023-08-31T03:26:31;14.00;;;8.90;;
57337;SDS011;43173;50.980;18.204;2023-08-31T03:28:57;13.60;;;8.70;;
57337;SDS011;43173;50.980;18.204;2023-08-31T03:31:23;12.50;;;9.00;;
57337;SDS011;43173;50.980;18.204;2023-08-31T03:33:49;15.40;;;8.80;;
57337;SDS011;43173;50.980;18.204;2023-08-31T03:36:15;13.20;;;8.70;;
57337;SDS011;43173;50.980;18.204;2023-08-31T03:38:41;13.20;;;8.30;;
57337;SDS011;43173;50.980;18.204;2023-08-31T03:41:07;13.90;;;8.90;;
57337;SDS011;43173;50.980;18.204;2023-08-31T03:43:32;14.10;;;8.40;;
57337;SDS011;43173;50.980;18.204;2023-08-31T03:45:59;21.20;;;9.10;;
57337;SDS011;43173;50.980;18.204;2023-08-31T03:48:25;15.60;;;8.90;;
57337;SDS011;43173;50.980;18.204;2023-08-31T03:50:54;13.00;;;8.60;;
57337;SDS011;43173;50.980;18.204;2023-08-31T03:53:20;13.40;;;9.00;;
57337;SDS011;43173;50.980;18.204;2023-08-31T03:55:46;12.00;;;8.60;;
57337;SDS011;43173;50.980;18.204;2023-08-31T03:58:12;13.40;;;8.40;;
57337;SDS011;43173;50.980;18.204;2023-08-31T04:00:38;14.30;;;9.00;;
57337;SDS011;43173;50.980;18.204;2023-08-31T04:03:04;13.50;;;8.80;;
57337;SDS011;43173;50.980;18.204;2023-08-31T04:05:34;12.80;;;8.20;;
57337;SDS011;43173;50.980;18.204;2023-08-31T04:08:01;13.40;;;9.00;;
57337;SDS011;43173;50.980;18.204;2023-08-31T04:10:28;13.80;;;8.40;;
57337;SDS011;43173;50.980;18.204;2023-08-31T04:12:55;15.20;;;9.20;;
57337;SDS011;43173;50.980;18.204;2023-08-31T04:15:21;16.40;;;9.60;;
57337;SDS011;43173;50.980;18.204;2023-08-31T04:17:47;16.50;;;9.70;;
57337;SDS011;43173;50.980;18.204;2023-08-31T04:20:12;15.20;;;9.40;;
57337;SDS011;43173;50.980;18.204;2023-08-31T04:22:38;12.70;;;8.80;;
57337;SDS011;43173;50.980;18.204;2023-08-31T04:25:04;12.60;;;8.80;;
57337;SDS011;43173;50.980;18.204;2023-08-31T04:27:30;15.30;;;8.70;;
57337;SDS011;43173;50.980;18.204;2023-08-31T04:29:57;14.80;;;9.00;;
57337;SDS011;43173;50.980;18.204;2023-08-31T04:32:25;15.30;;;9.30;;
57337;SDS011;43173;50.980;18.204;2023-08-31T04:34:51;15.30;;;8.80;;
57337;SDS011;43173;50.980;18.204;2023-08-31T04:37:17;17.20;;;10.00;;
57337;SDS011;43173;50.980;18.204;2023-08-31T04:39:43;18.00;;;9.90;;
57337;SDS011;43173;50.980;18.204;2023-08-31T04:42:08;14.50;;;9.70;;
57337;SDS011;43173;50.980;18.204;2023-08-31T04:44:34;16.80;;;10.30;;
57337;SDS011;43173;50.980;18.204;2023-08-31T04:47:00;15.50;;;9.90;;
57337;SDS011;43173;50.980;18.204;2023-08-31T04:49:26;16.30;;;10.40;;
57337;SDS011;43173;50.980;18.204;2023-08-31T04:51:52;15.40;;;10.50;;
57337;SDS011;43173;50.980;18.204;2023-08-31T04:54:17;14.30;;;9.20;;
57337;SDS011;43173;50.980;18.204;2023-08-31T04:56:43;15.10;;;9.50;;
57337;SDS011;43173;50.980;18.204;2023-08-31T04:59:08;15.30;;;9.50;;
57337;SDS011;43173;50.980;18.204;2023-08-31T05:01:34;16.10;;;9.20;;
57337;SDS011;43173;50.980;18.204;2023-08-31T05:03:59;15.40;;;8.90;;
57337;SDS011;43173;50.980;18.204;2023-08-31T05:06:25;15.70;;;10.10;;
57337;SDS011;43173;50.980;18.204;2023-08-31T05:08:51;17.60;;;10.40;;
57337;SDS011;43173;50.980;18.204;2023-08-31T05:11:17;16.20;;;10.50;;
57337;SDS011;43173;50.980;18.204;2023-08-31T05:13:42;15.80;;;10.40;;
57337;SDS011;43173;50.980;18.204;2023-08-31T05:16:08;14.00;;;9.10;;
57337;SDS011;43173;50.980;18.204;2023-08-31T05:18:34;11.80;;;8.10;;
57337;SDS011;43173;50.980;18.204;2023-08-31T05:21:01;13.10;;;7.70;;
57337;SDS011;43173;50.980;18.204;2023-08-31T05:23:27;10.60;;;7.70;;
57337;SDS011;43173;50.980;18.204;2023-08-31T05:25:53;14.20;;;8.20;;
57337;SDS011;43173;50.980;18.204;2023-08-31T05:28:22;14.00;;;8.10;;
57337;SDS011;43173;50.980;18.204;2023-08-31T05:30:51;10.90;;;7.40;;
57337;SDS011;43173;50.980;18.204;2023-08-31T05:33:18;9.60;;;7.10;;
57337;SDS011;43173;50.980;18.204;2023-08-31T05:35:44;12.60;;;7.50;;
57337;SDS011;43173;50.980;18.204;2023-08-31T05:38:10;11.30;;;7.50;;
57337;SDS011;43173;50.980;18.204;2023-08-31T05:40:36;12.40;;;8.30;;
57337;SDS011;43173;50.980;18.204;2023-08-31T05:43:02;11.70;;;7.80;;
57337;SDS011;43173;50.980;18.204;2023-08-31T05:45:34;9.80;;;7.90;;
57337;SDS011;43173;50.980;18.204;2023-08-31T05:48:00;13.40;;;8.60;;
57337;SDS011;43173;50.980;18.204;2023-08-31T05:50:26;12.30;;;8.60;;
57337;SDS011;43173;50.980;18.204;2023-08-31T05:52:53;14.60;;;9.40;;
57337;SDS011;43173;50.980;18.204;2023-08-31T05:55:19;15.50;;;9.70;;
57337;SDS011;43173;50.980;18.204;2023-08-31T05:57:45;15.70;;;9.30;;
57337;SDS011;43173;50.980;18.204;2023-08-31T06:00:11;13.50;;;7.80;;
57337;SDS011;43173;50.980;18.204;2023-08-31T06:02:37;13.20;;;7.40;;
57337;SDS011;43173;50.980;18.204;2023-08-31T06:05:03;8.90;;;6.90;;
57337;SDS011;43173;50.980;18.204;2023-08-31T06:07:29;9.30;;;6.20;;
57337;SDS011;43173;50.980;18.204;2023-08-31T06:09:55;10.00;;;6.70;;
57337;SDS011;43173;50.980;18.204;2023-08-31T06:12:21;8.60;;;6.60;;
57337;SDS011;43173;50.980;18.204;2023-08-31T06:14:47;9.00;;;6.40;;
57337;SDS011;43173;50.980;18.204;2023-08-31T06:17:13;9.40;;;6.40;;
57337;SDS011;43173;50.980;18.204;2023-08-31T06:19:39;6.80;;;5.90;;
57337;SDS011;43173;50.980;18.204;2023-08-31T06:22:05;6.80;;;5.90;;
57337;SDS011;43173;50.980;18.204;2023-08-31T06:24:30;6.60;;;5.70;;
57337;SDS011;43173;50.980;18.204;2023-08-31T06:26:57;8.10;;;6.20;;
57337;SDS011;43173;50.980;18.204;2023-08-31T06:29:23;10.00;;;5.90;;
57337;SDS011;43173;50.980;18.204;2023-08-31T06:31:48;7.20;;;5.70;;
57337;SDS011;43173;50.980;18.204;2023-08-31T06:34:14;9.40;;;5.70;;
57337;SDS011;43173;50.980;18.204;2023-08-31T06:36:39;6.00;;;4.80;;
57337;SDS011;43173;50.980;18.204;2023-08-31T06:39:06;8.00;;;5.40;;
57337;SDS011;43173;50.980;18.204;2023-08-31T06:41:32;8.40;;;5.40;;
57337;SDS011;43173;50.980;18.204;2023-08-31T06:43:57;7.50;;;4.90;;
57337;SDS011;43173;50.980;18.204;2023-08-31T06:46:23;8.10;;;5.50;;
57337;SDS011;43173;50.980;18.204;2023-08-31T06:48:48;5.80;;;4.90;;
57337;SDS011;43173;50.980;18.204;2023-08-31T06:51:14;6.40;;;5.10;;
57337;SDS011;43173;50.980;18.204;2023-08-31T06:53:43;6.50;;;5.20;;
57337;SDS011;43173;50.980;18.204;2023-08-31T06:56:10;8.80;;;5.20;;
57337;SDS011;43173;50.980;18.204;2023-08-31T06:58:35;9.80;;;5.50;;
57337;SDS011;43173;50.980;18.204;2023-08-31T07:01:05;6.90;;;5.10;;
57337;SDS011;43173;50.980;18.204;2023-08-31T07:03:31;7.80;;;5.10;;
57337;SDS011;43173;50.980;18.204;2023-08-31T07:05:57;6.30;;;5.00;;
57337;SDS011;43173;50.980;18.204;2023-08-31T07:08:22;4.90;;;4.10;;
57337;SDS011;43173;50.980;18.204;2023-08-31T07:10:51;6.10;;;4.00;;
57337;SDS011;43173;50.980;18.204;2023-08-31T07:13:17;6.60;;;4.20;;
57337;SDS011;43173;50.980;18.204;2023-08-31T07:15:43;4.80;;;4.10;;
57337;SDS011;43173;50.980;18.204;2023-08-31T07:18:09;4.90;;;4.30;;
57337;SDS011;43173;50.980;18.204;2023-08-31T07:20:34;5.80;;;4.60;;
57337;SDS011;43173;50.980;18.204;2023-08-31T07:23:00;6.10;;;5.50;;
57337;SDS011;43173;50.980;18.204;2023-08-31T07:25:26;5.80;;;4.80;;
57337;SDS011;43173;50.980;18.204;2023-08-31T07:27:52;6.70;;;4.50;;
57337;SDS011;43173;50.980;18.204;2023-08-31T07:30:18;10.60;;;4.80;;
57337;SDS011;43173;50.980;18.204;2023-08-31T07:32:44;5.60;;;4.40;;
57337;SDS011;43173;50.980;18.204;2023-08-31T07:35:09;6.40;;;4.70;;
57337;SDS011;43173;50.980;18.204;2023-08-31T07:37:35;6.00;;;4.80;;
57337;SDS011;43173;50.980;18.204;2023-08-31T07:40:02;9.50;;;4.50;;
57337;SDS011;43173;50.980;18.204;2023-08-31T07:42:34;5.30;;;4.80;;
57337;SDS011;43173;50.980;18.204;2023-08-31T07:45:00;6.60;;;5.10;;
57337;SDS011;43173;50.980;18.204;2023-08-31T07:47:26;5.60;;;4.10;;
57337;SDS011;43173;50.980;18.204;2023-08-31T07:49:51;5.90;;;4.10;;
57337;SDS011;43173;50.980;18.204;2023-08-31T07:52:17;7.20;;;4.50;;
57337;SDS011;43173;50.980;18.204;2023-08-31T07:54:42;5.80;;;4.70;;
57337;SDS011;43173;50.980;18.204;2023-08-31T07:57:08;5.60;;;5.00;;
57337;SDS011;43173;50.980;18.204;2023-08-31T07:59:34;5.80;;;5.20;;
57337;SDS011;43173;50.980;18.204;2023-08-31T08:02:00;5.90;;;5.10;;
57337;SDS011;43173;50.980;18.204;2023-08-31T08:04:25;7.20;;;5.50;;
57337;SDS011;43173;50.980;18.204;2023-08-31T08:06:52;6.50;;;4.90;;
57337;SDS011;43173;50.980;18.204;2023-08-31T08:09:18;5.60;;;4.60;;
57337;SDS011;43173;50.980;18.204;2023-08-31T08:11:43;5.40;;;4.10;;
57337;SDS011;43173;50.980;18.204;2023-08-31T08:14:08;6.50;;;5.30;;
57337;SDS011;43173;50.980;18.204;2023-08-31T08:16:34;6.40;;;4.80;;
57337;SDS011;43173;50.980;18.204;2023-08-31T08:19:01;4.40;;;4.00;;
57337;SDS011;43173;50.980;18.204;2023-08-31T08:21:26;5.70;;;4.40;;
57337;SDS011;43173;50.980;18.204;2023-08-31T08:23:52;5.40;;;4.80;;
57337;SDS011;43173;50.980;18.204;2023-08-31T08:26:18;5.90;;;5.30;;
57337;SDS011;43173;50.980;18.204;2023-08-31T08:28:43;4.60;;;4.20;;
57337;SDS011;43173;50.980;18.204;2023-08-31T08:31:09;5.70;;;4.60;;
57337;SDS011;43173;50.980;18.204;2023-08-31T08:33:35;6.40;;;4.90;;
57337;SDS011;43173;50.980;18.204;2023-08-31T08:36:01;8.30;;;4.80;;
57337;SDS011;43173;50.980;18.204;2023-08-31T08:38:26;5.50;;;4.90;;
57337;SDS011;43173;50.980;18.204;2023-08-31T08:40:52;5.00;;;4.50;;
57337;SDS011;43173;50.980;18.204;2023-08-31T08:43:20;5.30;;;4.80;;
57337;SDS011;43173;50.980;18.204;2023-08-31T08:45:52;5.90;;;5.40;;
57337;SDS011;43173;50.980;18.204;2023-08-31T08:48:20;6.70;;;5.10;;
57337;SDS011;43173;50.980;18.204;2023-08-31T08:50:46;5.70;;;5.10;;
57337;SDS011;43173;50.980;18.204;2023-08-31T08:53:12;5.70;;;4.80;;
57337;SDS011;43173;50.980;18.204;2023-08-31T08:55:40;4.60;;;4.20;;
57337;SDS011;43173;50.980;18.204;2023-08-31T08:58:06;8.20;;;5.00;;
57337;SDS011;43173;50.980;18.204;2023-08-31T09:00:32;6.60;;;5.10;;
57337;SDS011;43173;50.980;18.204;2023-08-31T09:02:59;5.70;;;5.10;;
57337;SDS011;43173;50.980;18.204;2023-08-31T09:05:25;7.70;;;5.40;;
57337;SDS011;43173;50.980;18.204;2023-08-31T09:13:10;6.00;;;5.00;;
57337;SDS011;43173;50.980;18.204;2023-08-31T09:15:44;6.20;;;5.30;;
57337;SDS011;43173;50.980;18.204;2023-08-31T09:20:58;4.80;;;4.10;;
57337;SDS011;43173;50.980;18.204;2023-08-31T09:23:25;6.20;;;4.30;;
57337;SDS011;43173;50.980;18.204;2023-08-31T09:25:54;4.80;;;4.30;;
57337;SDS011;43173;50.980;18.204;2023-08-31T09:28:24;4.80;;;4.20;;
57337;SDS011;43173;50.980;18.204;2023-08-31T09:30:52;5.00;;;4.50;;
57337;SDS011;43173;50.980;18.204;2023-08-31T09:33:19;5.40;;;4.40;;
57337;SDS011;43173;50.980;18.204;2023-08-31T09:38:15;6.50;;;4.50;;
57337;SDS011;43173;50.980;18.204;2023-08-31T09:40:41;5.10;;;4.40;;
57337;SDS011;43173;50.980;18.204;2023-08-31T09:43:07;5.00;;;4.60;;
57337;SDS011;43173;50.980;18.204;2023-08-31T09:45:33;6.70;;;4.30;;
57337;SDS011;43173;50.980;18.204;2023-08-31T09:48:00;4.60;;;4.20;;
57337;SDS011;43173;50.980;18.204;2023-08-31T09:50:31;5.00;;;4.20;;
57337;SDS011;43173;50.980;18.204;2023-08-31T09:53:02;4.50;;;3.90;;
57337;SDS011;43173;50.980;18.204;2023-08-31T09:55:29;6.90;;;6.10;;
57337;SDS011;43173;50.980;18.204;2023-08-31T09:57:57;6.80;;;5.90;;
57337;SDS011;43173;50.980;18.204;2023-08-31T10:00:25;6.00;;;5.00;;
57337;SDS011;43173;50.980;18.204;2023-08-31T10:02:52;4.90;;;4.50;;
57337;SDS011;43173;50.980;18.204;2023-08-31T10:05:19;7.90;;;3.80;;
57337;SDS011;43173;50.980;18.204;2023-08-31T10:07:45;4.30;;;3.40;;
57337;SDS011;43173;50.980;18.204;2023-08-31T10:10:11;5.60;;;4.10;;
57337;SDS011;43173;50.980;18.204;2023-08-31T10:12:37;6.10;;;3.80;;
57337;SDS011;43173;50.980;18.204;2023-08-31T10:15:04;3.70;;;3.40;;
57337;SDS011;43173;50.980;18.204;2023-08-31T10:17:30;4.20;;;3.90;;
57337;SDS011;43173;50.980;18.204;2023-08-31T10:19:56;4.30;;;3.90;;
57337;SDS011;43173;50.980;18.204;2023-08-31T10:22:22;3.90;;;3.00;;
57337;SDS011;43173;50.980;18.204;2023-08-31T10:38:30;4.10;;;3.70;;
57337;SDS011;43173;50.980;18.204;2023-08-31T10:41:03;7.90;;;4.00;;
57337;SDS011;43173;50.980;18.204;2023-08-31T10:43:45;5.90;;;3.60;;
57337;SDS011;43173;50.980;18.204;2023-08-31T10:48:56;4.10;;;3.70;;
57337;SDS011;43173;50.980;18.204;2023-08-31T10:51:23;4.90;;;3.00;;
57337;SDS011;43173;50.980;18.204;2023-08-31T10:53:49;3.70;;;3.10;;
57337;SDS011;43173;50.980;18.204;2023-08-31T10:56:16;4.30;;;2.90;;
57337;SDS011;43173;50.980;18.204;2023-08-31T10:58:42;3.60;;;3.30;;
57337;SDS011;43173;50.980;18.204;2023-08-31T11:01:09;2.80;;;2.60;;
57337;SDS011;43173;50.980;18.204;2023-08-31T11:06:23;3.50;;;2.30;;
57337;SDS011;43173;50.980;18.204;2023-08-31T11:21:58;5.70;;;3.70;;
57337;SDS011;43173;50.980;18.204;2023-08-31T11:24:24;5.40;;;3.20;;
57337;SDS011;43173;50.980;18.204;2023-08-31T11:26:50;4.70;;;3.30;;
57337;SDS011;43173;50.980;18.204;2023-08-31T11:29:16;5.30;;;3.40;;
57337;SDS011;43173;50.980;18.204;2023-08-31T11:31:42;4.40;;;3.30;;
57337;SDS011;43173;50.980;18.204;2023-08-31T11:34:12;4.80;;;3.10;;
57337;SDS011;43173;50.980;18.204;2023-08-31T11:36:38;6.70;;;3.30;;
57337;SDS011;43173;50.980;18.204;2023-08-31T11:39:06;4.50;;;2.70;;
57337;SDS011;43173;50.980;18.204;2023-08-31T11:41:32;6.20;;;2.80;;
57337;SDS011;43173;50.980;18.204;2023-08-31T11:44:00;6.40;;;2.70;;
57337;SDS011;43173;50.980;18.204;2023-08-31T11:46:26;2.80;;;2.40;;
57337;SDS011;43173;50.980;18.204;2023-08-31T11:48:52;2.30;;;1.90;;
57337;SDS011;43173;50.980;18.204;2023-08-31T11:51:18;3.50;;;2.90;;
57337;SDS011;43173;50.980;18.204;2023-08-31T11:53:44;3.60;;;3.00;;
57337;SDS011;43173;50.980;18.204;2023-08-31T11:56:10;4.50;;;2.70;;
57337;SDS011;43173;50.980;18.204;2023-08-31T11:58:42;3.40;;;2.60;;
57337;SDS011;43173;50.980;18.204;2023-08-31T12:01:11;4.10;;;2.80;;
57337;SDS011;43173;50.980;18.204;2023-08-31T12:03:43;4.60;;;2.90;;
57337;SDS011;43173;50.980;18.204;2023-08-31T12:06:10;3.10;;;2.80;;
57337;SDS011;43173;50.980;18.204;2023-08-31T12:08:36;3.30;;;2.60;;
57337;SDS011;43173;50.980;18.204;2023-08-31T12:11:06;3.00;;;2.80;;
57337;SDS011;43173;50.980;18.204;2023-08-31T12:13:32;4.30;;;3.20;;
57337;SDS011;43173;50.980;18.204;2023-08-31T12:15:57;2.90;;;2.50;;
57337;SDS011;43173;50.980;18.204;2023-08-31T12:18:23;3.70;;;3.00;;
57337;SDS011;43173;50.980;18.204;2023-08-31T12:20:50;4.20;;;3.20;;
57337;SDS011;43173;50.980;18.204;2023-08-31T12:23:16;2.90;;;2.30;;
57337;SDS011;43173;50.980;18.204;2023-08-31T12:25:53;3.50;;;2.50;;
57337;SDS011;43173;50.980;18.204;2023-08-31T12:28:20;4.10;;;2.60;;
57337;SDS011;43173;50.980;18.204;2023-08-31T12:30:47;3.10;;;2.40;;
57337;SDS011;43173;50.980;18.204;2023-08-31T12:33:14;3.20;;;2.80;;
57337;SDS011;43173;50.980;18.204;2023-08-31T12:35:40;3.70;;;2.20;;
57337;SDS011;43173;50.980;18.204;2023-08-31T12:38:06;3.30;;;2.10;;
57337;SDS011;43173;50.980;18.204;2023-08-31T12:40:32;3.30;;;2.30;;
57337;SDS011;43173;50.980;18.204;2023-08-31T12:42:58;3.20;;;2.10;;
57337;SDS011;43173;50.980;18.204;2023-08-31T12:45:23;1.90;;;1.80;;
57337;SDS011;43173;50.980;18.204;2023-08-31T12:47:49;2.10;;;1.90;;
57337;SDS011;43173;50.980;18.204;2023-08-31T12:50:15;2.40;;;1.90;;
57337;SDS011;43173;50.980;18.204;2023-08-31T12:52:41;3.10;;;1.80;;
57337;SDS011;43173;50.980;18.204;2023-08-31T12:55:14;3.30;;;1.90;;
57337;SDS011;43173;50.980;18.204;2023-08-31T12:57:41;4.00;;;1.90;;
57337;SDS011;43173;50.980;18.204;2023-08-31T13:00:07;2.30;;;1.50;;
57337;SDS011;43173;50.980;18.204;2023-08-31T13:02:40;1.70;;;1.40;;
57337;SDS011;43173;50.980;18.204;2023-08-31T13:05:07;1.40;;;1.30;;
57337;SDS011;43173;50.980;18.204;2023-08-31T13:07:35;1.50;;;1.40;;
57337;SDS011;43173;50.980;18.204;2023-08-31T13:10:02;2.90;;;1.60;;
57337;SDS011;43173;50.980;18.204;2023-08-31T13:12:29;1.70;;;1.40;;
57337;SDS011;43173;50.980;18.204;2023-08-31T13:14:56;2.00;;;1.70;;
57337;SDS011;43173;50.980;18.204;2023-08-31T13:17:23;2.20;;;1.50;;
57337;SDS011;43173;50.980;18.204;2023-08-31T13:19:55;2.10;;;1.60;;
57337;SDS011;43173;50.980;18.204;2023-08-31T13:22:22;1.70;;;1.30;;
57337;SDS011;43173;50.980;18.204;2023-08-31T13:24:49;2.70;;;1.70;;
57337;SDS011;43173;50.980;18.204;2023-08-31T13:27:15;2.60;;;1.80;;
57337;SDS011;43173;50.980;18.204;2023-08-31T13:29:41;1.80;;;1.60;;
57337;SDS011;43173;50.980;18.204;2023-08-31T13:32:08;2.10;;;1.80;;
57337;SDS011;43173;50.980;18.204;2023-08-31T13:34:34;2.60;;;1.80;;
57337;SDS011;43173;50.980;18.204;2023-08-31T13:37:00;2.10;;;1.40;;
57337;SDS011;43173;50.980;18.204;2023-08-31T13:39:26;1.80;;;1.30;;
57337;SDS011;43173;50.980;18.204;2023-08-31T13:41:52;2.00;;;1.40;;
57337;SDS011;43173;50.980;18.204;2023-08-31T13:44:18;1.90;;;1.30;;
57337;SDS011;43173;50.980;18.204;2023-08-31T13:46:45;3.10;;;2.00;;
57337;SDS011;43173;50.980;18.204;2023-08-31T13:49:11;2.10;;;1.50;;
57337;SDS011;43173;50.980;18.204;2023-08-31T13:51:37;2.40;;;1.60;;
57337;SDS011;43173;50.980;18.204;2023-08-31T13:54:02;2.60;;;1.50;;
57337;SDS011;43173;50.980;18.204;2023-08-31T13:56:32;3.20;;;1.70;;
57337;SDS011;43173;50.980;18.204;2023-08-31T13:58:58;1.90;;;1.50;;
57337;SDS011;43173;50.980;18.204;2023-08-31T14:01:25;3.80;;;1.50;;
57337;SDS011;43173;50.980;18.204;2023-08-31T14:03:51;2.90;;;1.70;;
57337;SDS011;43173;50.980;18.204;2023-08-31T14:06:17;2.90;;;1.90;;
57337;SDS011;43173;50.980;18.204;2023-08-31T14:08:42;2.20;;;1.50;;
57337;SDS011;43173;50.980;18.204;2023-08-31T14:11:08;2.90;;;2.00;;
57337;SDS011;43173;50.980;18.204;2023-08-31T14:13:34;2.10;;;1.80;;
57337;SDS011;43173;50.980;18.204;2023-08-31T14:15:59;3.80;;;1.80;;
57337;SDS011;43173;50.980;18.204;2023-08-31T14:18:28;4.60;;;1.70;;
57337;SDS011;43173;50.980;18.204;2023-08-31T14:20:56;2.30;;;2.10;;
57337;SDS011;43173;50.980;18.204;2023-08-31T14:23:24;2.30;;;1.90;;
57337;SDS011;43173;50.980;18.204;2023-08-31T14:25:50;2.90;;;2.20;;
57337;SDS011;43173;50.980;18.204;2023-08-31T14:28:15;1.90;;;1.80;;
57337;SDS011;43173;50.980;18.204;2023-08-31T14:30:41;4.50;;;2.00;;
57337;SDS011;43173;50.980;18.204;2023-08-31T14:33:07;3.00;;;1.80;;
57337;SDS011;43173;50.980;18.204;2023-08-31T14:35:39;2.70;;;1.70;;
57337;SDS011;43173;50.980;18.204;2023-08-31T14:38:05;3.40;;;2.00;;
57337;SDS011;43173;50.980;18.204;2023-08-31T14:40:31;4.50;;;1.90;;
57337;SDS011;43173;50.980;18.204;2023-08-31T14:42:59;2.50;;;1.50;;
57337;SDS011;43173;50.980;18.204;2023-08-31T14:45:25;3.00;;;1.80;;
57337;SDS011;43173;50.980;18.204;2023-08-31T14:47:51;2.90;;;1.50;;
57337;SDS011;43173;50.980;18.204;2023-08-31T14:50:16;2.80;;;1.30;;
57337;SDS011;43173;50.980;18.204;2023-08-31T14:52:42;2.10;;;1.50;;
57337;SDS011;43173;50.980;18.204;2023-08-31T14:55:08;1.30;;;1.20;;
57337;SDS011;43173;50.980;18.204;2023-08-31T14:57:33;2.30;;;1.30;;
57337;SDS011;43173;50.980;18.204;2023-08-31T14:59:59;4.20;;;1.50;;
57337;SDS011;43173;50.980;18.204;2023-08-31T15:02:25;1.60;;;1.30;;
57337;SDS011;43173;50.980;18.204;2023-08-31T15:04:52;2.60;;;1.20;;
57337;SDS011;43173;50.980;18.204;2023-08-31T15:07:18;1.60;;;1.10;;
57337;SDS011;43173;50.980;18.204;2023-08-31T15:09:44;1.50;;;1.20;;
57337;SDS011;43173;50.980;18.204;2023-08-31T15:12:10;2.70;;;1.00;;
57337;SDS011;43173;50.980;18.204;2023-08-31T15:14:37;1.60;;;1.30;;
57337;SDS011;43173;50.980;18.204;2023-08-31T15:17:04;1.90;;;1.20;;
57337;SDS011;43173;50.980;18.204;2023-08-31T15:19:30;2.30;;;1.40;;